Time;durP1;ratioP1;P1;durP2;ratioP2;P2;SDS_P1;SDS_P2;PMS_P1;PMS_P2;Temp;Humidity;BMP_temperature;BMP_pressure;BME280_temperature;BME280_humidity;BME280_pressure;Samples;Min_cycle;Max_cycle;Signal;HPM_P1;HPM_P2
2022/09/10 00:01:48;;;;;;;;;;;27.80;91.20;;;;;;5106503;28;19913;-55
2022/09/10 00:04:16;;;;;;;;;;;27.80;91.10;;;;;;5106292;28;19908;-57
2022/09/10 00:06:43;;;;;;;;;;;27.80;90.80;;;;;;5106316;28;19919;-59
2022/09/10 00:09:09;;;;;;;;;;;27.80;90.80;;;;;;5106317;28;19905;-53
2022/09/10 00:11:38;;;;;;;;;;;27.80;90.70;;;;;;5106500;28;19990;-55
2022/09/10 00:14:05;;;;;;;;;;;27.80;90.80;;;;;;5106011;28;19971;-58
2022/09/10 00:16:31;;;;;;;;;;;27.70;90.60;;;;;;5105933;28;19916;-56
2022/09/10 00:18:57;;;;;;;;;;;27.70;90.60;;;;;;5105905;28;19912;-57
2022/09/10 00:21:24;;;;;;;;;;;27.70;90.60;;;;;;5105993;28;19940;-59
2022/09/10 00:23:50;;;;;;;;;;;27.70;90.60;;;;;;5106098;28;20154;-58
2022/09/10 00:26:22;;;;;;;;;;;27.70;90.60;;;;;;5106071;28;19916;-55
2022/09/10 00:28:49;;;;;;;;;;;27.70;90.50;;;;;;5105828;28;19908;-57
2022/09/10 00:31:15;;;;;;;;;;;27.60;90.40;;;;;;5105899;28;19919;-56
2022/09/10 00:33:41;;;;;;;;;;;27.60;90.50;;;;;;5105992;28;19904;-56
2022/09/10 00:36:34;;;;;;;;;;;27.60;90.30;;;;;;5105404;28;19923;-57
2022/09/10 00:39:04;;;;;;;;;;;27.60;90.30;;;;;;5102470;28;19911;-58
2022/09/10 00:41:30;;;;;;;;;;;27.60;90.20;;;;;;5105674;28;19962;-58
2022/09/10 00:43:56;;;;;;;;;;;27.60;90.20;;;;;;5105717;28;19944;-56
2022/09/10 00:46:32;;;;;;;;;;;27.60;90.20;;;;;;5105777;28;19987;-58
2022/09/10 00:49:00;;;;;;;;;;;27.60;90.10;;;;;;5105433;28;19908;-59
2022/09/10 00:51:29;;;;;;;;;;;27.60;90.20;;;;;;5105733;28;19912;-60
2022/09/10 00:53:57;;;;;;;;;;;27.60;90.20;;;;;;5105267;28;19908;-58
2022/09/10 00:56:23;;;;;;;;;;;27.50;90.20;;;;;;5105166;28;20344;-56
2022/09/10 00:58:49;;;;;;;;;;;27.50;90.30;;;;;;5105347;28;19943;-58
2022/09/10 01:01:17;;;;;;;;;;;27.50;90.10;;;;;;5105611;28;20204;-56
2022/09/10 01:03:44;;;;;;;;;;;27.50;90.10;;;;;;5105250;28;19915;-56
2022/09/10 01:06:11;;;;;;;;;;;27.50;89.90;;;;;;5105470;28;19976;-58
2022/09/10 01:08:37;;;;;;;;;;;27.40;89.90;;;;;;5104782;28;19915;-57
2022/09/10 01:11:22;;;;;;;;;;;27.40;90.10;;;;;;5105664;28;19909;-58
2022/09/10 01:13:57;;;;;;;;;;;27.40;89.30;;;;;;5105335;28;20203;-57
2022/09/10 01:16:23;;;;;;;;;;;27.40;89.30;;;;;;5105228;28;19987;-55
2022/09/10 01:19:08;;;;;;;;;;;27.40;89.30;;;;;;5104792;28;19916;-56
2022/09/10 01:21:38;;;;;;;;;;;27.40;89.20;;;;;;5104951;28;19947;-55
2022/09/10 01:24:07;;;;;;;;;;;27.40;89.10;;;;;;5104995;28;19950;-56
2022/09/10 01:26:40;;;;;;;;;;;27.40;88.90;;;;;;5104984;28;20022;-53
2022/09/10 01:29:17;;;;;;;;;;;27.30;88.90;;;;;;5104841;28;20190;-57
2022/09/10 01:31:46;;;;;;;;;;;27.40;88.70;;;;;;5104767;28;20143;-53
2022/09/10 01:34:12;;;;;;;;;;;27.30;88.80;;;;;;5104571;28;20135;-57
2022/09/10 01:36:39;;;;;;;;;;;27.30;88.70;;;;;;5104955;28;19979;-55
2022/09/10 01:39:05;;;;;;;;;;;27.30;88.50;;;;;;5104722;28;19904;-55
2022/09/10 01:41:31;;;;;;;;;;;27.30;88.60;;;;;;5104604;28;19912;-54
2022/09/10 01:43:58;;;;;;;;;;;27.30;88.50;;;;;;5104550;28;19908;-56
2022/09/10 01:46:44;;;;;;;;;;;27.30;88.60;;;;;;5104624;28;19911;-56
2022/09/10 01:49:13;;;;;;;;;;;27.30;88.80;;;;;;5104512;28;19946;-56
2022/09/10 01:51:49;;;;;;;;;;;27.30;88.60;;;;;;5104491;28;19912;-56
2022/09/10 01:54:18;;;;;;;;;;;27.30;88.50;;;;;;5104784;28;20128;-55
2022/09/10 01:56:50;;;;;;;;;;;27.30;88.40;;;;;;5104420;28;20010;-57
2022/09/10 01:59:26;;;;;;;;;;;27.30;88.30;;;;;;5104449;28;19908;-55
2022/09/10 02:02:00;;;;;;;;;;;27.30;88.40;;;;;;5104424;28;19919;-57
2022/09/10 02:04:27;;;;;;;;;;;27.30;88.60;;;;;;5104588;28;19908;-56
2022/09/10 02:06:54;;;;;;;;;;;27.30;88.60;;;;;;5104329;28;19912;-57
2022/09/10 02:09:21;;;;;;;;;;;27.30;88.80;;;;;;5104440;28;19911;-55
2022/09/10 02:11:49;;;;;;;;;;;27.20;88.80;;;;;;5104288;28;19912;-55
2022/09/10 02:14:15;;;;;;;;;;;27.20;88.90;;;;;;5104602;28;19911;-57
2022/09/10 02:16:47;;;;;;;;;;;27.20;89.20;;;;;;5103961;28;19916;-58
2022/09/10 02:19:14;;;;;;;;;;;27.20;89.30;;;;;;5106667;28;20041;-55
2022/09/10 02:21:41;;;;;;;;;;;27.20;89.50;;;;;;5108384;28;19916;-57
2022/09/10 02:24:09;;;;;;;;;;;27.20;89.60;;;;;;5108475;28;19908;-54
2022/09/10 02:26:37;;;;;;;;;;;27.20;89.80;;;;;;5108361;28;19912;-57
2022/09/10 02:29:03;;;;;;;;;;;27.10;89.80;;;;;;5108338;28;20248;-54
2022/09/10 02:31:29;;;;;;;;;;;27.10;89.90;;;;;;5108430;28;19912;-56
2022/09/10 02:33:55;;;;;;;;;;;27.20;89.90;;;;;;5108216;28;19979;-56
2022/09/10 02:36:24;;;;;;;;;;;27.10;90.00;;;;;;5108475;28;19947;-57
2022/09/10 02:38:55;;;;;;;;;;;27.10;90.10;;;;;;5108173;28;19950;-55
2022/09/10 02:41:24;;;;;;;;;;;27.10;90.20;;;;;;5107925;28;19983;-57
2022/09/10 02:43:50;;;;;;;;;;;27.10;90.20;;;;;;5108239;28;19908;-56
2022/09/10 02:46:17;;;;;;;;;;;27.00;90.20;;;;;;5108188;28;20200;-56
2022/09/10 02:48:43;;;;;;;;;;;27.00;90.30;;;;;;5107836;28;19913;-56
2022/09/10 02:51:09;;;;;;;;;;;27.00;90.40;;;;;;5108440;28;19997;-58
2022/09/10 02:53:35;;;;;;;;;;;27.00;90.60;;;;;;5108042;28;19912;-55
2022/09/10 02:56:02;;;;;;;;;;;27.00;90.60;;;;;;5108309;28;19912;-55
2022/09/10 02:58:32;;;;;;;;;;;27.00;90.70;;;;;;5108154;28;19920;-55
2022/09/10 03:01:06;;;;;;;;;;;27.00;90.70;;;;;;5108145;28;19904;-57
2022/09/10 03:03:32;;;;;;;;;;;27.00;90.80;;;;;;5107691;28;19912;-57
2022/09/10 03:05:59;;;;;;;;;;;26.90;90.80;;;;;;5107621;28;19908;-58
2022/09/10 03:08:26;;;;;;;;;;;27.00;91.00;;;;;;5107802;28;20223;-57
2022/09/10 03:10:52;;;;;;;;;;;26.90;91.00;;;;;;5107991;28;20153;-59
2022/09/10 03:13:18;;;;;;;;;;;26.90;91.00;;;;;;5107551;28;19908;-56
2022/09/10 03:15:44;;;;;;;;;;;26.90;90.90;;;;;;5107965;28;19908;-57
2022/09/10 03:18:11;;;;;;;;;;;26.90;90.90;;;;;;5107156;28;20115;-53
2022/09/10 03:20:40;;;;;;;;;;;26.90;91.00;;;;;;5107752;28;19908;-56
2022/09/10 03:23:06;;;;;;;;;;;26.90;91.00;;;;;;5107443;28;19947;-55
2022/09/10 03:25:32;;;;;;;;;;;26.90;91.00;;;;;;5107540;28;19918;-56
2022/09/10 03:27:58;;;;;;;;;;;26.80;91.00;;;;;;5107335;28;20219;-53
2022/09/10 03:30:24;;;;;;;;;;;26.90;90.80;;;;;;5106661;28;19915;-56
2022/09/10 03:32:52;;;;;;;;;;;26.80;90.80;;;;;;5107121;28;19912;-56
2022/09/10 03:35:19;;;;;;;;;;;26.80;90.70;;;;;;5107656;28;19916;-53
2022/09/10 03:37:45;;;;;;;;;;;26.80;90.70;;;;;;5107155;28;19916;-56
2022/09/10 03:40:11;;;;;;;;;;;26.80;90.60;;;;;;5107400;28;19966;-54
2022/09/10 03:42:37;;;;;;;;;;;26.90;90.50;;;;;;5106927;28;19912;-56
2022/09/10 03:45:04;;;;;;;;;;;26.90;90.40;;;;;;5107170;28;19914;-57
2022/09/10 03:47:30;;;;;;;;;;;26.80;90.30;;;;;;5107064;28;19912;-55
2022/09/10 03:49:58;;;;;;;;;;;26.80;90.10;;;;;;5106524;28;19926;-55
2022/09/10 03:52:25;;;;;;;;;;;26.80;90.10;;;;;;5106829;28;20204;-54
2022/09/10 03:54:51;;;;;;;;;;;26.90;90.20;;;;;;5106952;28;19971;-54
2022/09/10 03:57:17;;;;;;;;;;;26.90;90.20;;;;;;5106527;28;20227;-56
2022/09/10 03:59:44;;;;;;;;;;;26.80;90.20;;;;;;5107017;28;19975;-56
2022/09/10 04:02:11;;;;;;;;;;;26.80;90.20;;;;;;5106512;28;19908;-56
2022/09/10 04:04:37;;;;;;;;;;;26.80;90.20;;;;;;5106482;28;19908;-55
2022/09/10 04:07:03;;;;;;;;;;;26.80;90.10;;;;;;5106441;28;19919;-55
2022/09/10 04:09:31;;;;;;;;;;;26.80;90.00;;;;;;5106687;28;19988;-54
2022/09/10 04:12:00;;;;;;;;;;;26.80;90.00;;;;;;5106269;28;19919;-53
2022/09/10 04:14:26;;;;;;;;;;;26.80;90.20;;;;;;5106485;28;19931;-55
2022/09/10 04:16:53;;;;;;;;;;;26.80;89.90;;;;;;5106042;28;19916;-55
2022/09/10 04:19:19;;;;;;;;;;;26.80;89.70;;;;;;5106274;28;19912;-53
2022/09/10 04:21:45;;;;;;;;;;;26.80;89.80;;;;;;5106292;28;19919;-55
2022/09/10 04:24:11;;;;;;;;;;;26.80;90.00;;;;;;5106318;28;19915;-56
2022/09/10 04:26:38;;;;;;;;;;;26.80;90.10;;;;;;5106108;28;19938;-56
2022/09/10 04:29:04;;;;;;;;;;;26.70;90.30;;;;;;5106207;28;19914;-57
2022/09/10 04:31:30;;;;;;;;;;;26.70;90.40;;;;;;5106043;28;20200;-55
2022/09/10 04:33:58;;;;;;;;;;;26.70;90.50;;;;;;5105932;28;19931;-54
2022/09/10 04:36:25;;;;;;;;;;;26.80;90.70;;;;;;5105823;28;19916;-56
2022/09/10 04:38:51;;;;;;;;;;;26.70;90.70;;;;;;5105938;28;19904;-55
2022/09/10 04:41:18;;;;;;;;;;;26.70;90.70;;;;;;5105720;28;19912;-57
2022/09/10 04:43:44;;;;;;;;;;;26.70;90.60;;;;;;5105865;28;19914;-59
2022/09/10 04:46:10;;;;;;;;;;;26.70;90.90;;;;;;5106291;28;19938;-54
2022/09/10 04:48:37;;;;;;;;;;;26.70;90.90;;;;;;5105856;28;20200;-55
2022/09/10 04:51:03;;;;;;;;;;;26.70;91.00;;;;;;5105499;28;19904;-57
2022/09/10 04:53:30;;;;;;;;;;;26.70;90.90;;;;;;5105622;28;19958;-54
2022/09/10 04:55:56;;;;;;;;;;;26.70;90.90;;;;;;5105932;28;19930;-55
2022/09/10 04:58:22;;;;;;;;;;;26.70;91.00;;;;;;5105714;28;19919;-57
2022/09/10 05:00:49;;;;;;;;;;;26.70;90.90;;;;;;5105816;28;19979;-59
2022/09/10 05:03:15;;;;;;;;;;;26.70;90.90;;;;;;5105692;28;20212;-54
2022/09/10 05:05:41;;;;;;;;;;;26.70;91.00;;;;;;5105688;28;19908;-54
2022/09/10 05:08:07;;;;;;;;;;;26.70;91.10;;;;;;5105326;28;20019;-55
2022/09/10 05:10:35;;;;;;;;;;;26.70;91.10;;;;;;5105622;28;19912;-56
2022/09/10 05:13:01;;;;;;;;;;;26.70;91.20;;;;;;5105104;28;19920;-56
2022/09/10 05:15:28;;;;;;;;;;;26.70;91.40;;;;;;5105666;28;20188;-54
2022/09/10 05:17:54;;;;;;;;;;;26.60;91.30;;;;;;5104972;28;19923;-55
2022/09/10 05:20:21;;;;;;;;;;;26.60;91.50;;;;;;5105307;28;19907;-58
2022/09/10 05:22:47;;;;;;;;;;;26.70;91.50;;;;;;5105124;28;20188;-55
2022/09/10 05:25:14;;;;;;;;;;;26.60;91.70;;;;;;5105338;28;19908;-54
2022/09/10 05:27:40;;;;;;;;;;;26.60;91.70;;;;;;5104853;28;19918;-54
2022/09/10 05:30:07;;;;;;;;;;;26.60;91.80;;;;;;5105272;28;20194;-53
2022/09/10 05:32:33;;;;;;;;;;;26.60;91.80;;;;;;5105050;28;19909;-55
2022/09/10 05:35:00;;;;;;;;;;;26.60;92.00;;;;;;5104642;28;19908;-56
2022/09/10 05:37:27;;;;;;;;;;;26.60;92.10;;;;;;5104752;28;20276;-57
2022/09/10 05:39:53;;;;;;;;;;;26.60;92.20;;;;;;5104927;28;19911;-56
2022/09/10 05:42:21;;;;;;;;;;;26.60;92.20;;;;;;5104739;28;19912;-56
2022/09/10 05:44:47;;;;;;;;;;;26.60;92.20;;;;;;5104860;28;19916;-58
2022/09/10 05:47:13;;;;;;;;;;;26.60;92.30;;;;;;5104795;28;19930;-55
2022/09/10 05:49:39;;;;;;;;;;;26.60;92.40;;;;;;5104850;28;20220;-55
2022/09/10 05:52:05;;;;;;;;;;;26.60;92.40;;;;;;5104841;28;19919;-55
2022/09/10 05:54:31;;;;;;;;;;;26.60;92.50;;;;;;5104217;28;19908;-54
2022/09/10 05:56:57;;;;;;;;;;;26.60;92.50;;;;;;5104442;28;20253;-55
2022/09/10 05:59:24;;;;;;;;;;;26.60;92.50;;;;;;5104403;28;19948;-59
2022/09/10 06:01:51;;;;;;;;;;;26.60;92.60;;;;;;5104463;28;19912;-56
2022/09/10 06:04:19;;;;;;;;;;;26.60;92.80;;;;;;5104490;28;20239;-53
2022/09/10 06:06:46;;;;;;;;;;;26.60;93.00;;;;;;5104286;28;19916;-54
2022/09/10 06:09:13;;;;;;;;;;;26.60;93.20;;;;;;5104407;28;20088;-55
2022/09/10 06:11:39;;;;;;;;;;;26.60;93.30;;;;;;5104346;28;19918;-56
2022/09/10 06:14:05;;;;;;;;;;;26.60;93.40;;;;;;5104268;28;19908;-55
2022/09/10 06:16:32;;;;;;;;;;;26.60;93.50;;;;;;5104335;28;19916;-56
2022/09/10 06:18:58;;;;;;;;;;;26.60;93.60;;;;;;5104108;28;19916;-55
2022/09/10 06:21:26;;;;;;;;;;;26.60;93.80;;;;;;5104174;28;20196;-55
2022/09/10 06:23:55;;;;;;;;;;;26.60;93.90;;;;;;5104124;28;19904;-55
2022/09/10 06:26:21;;;;;;;;;;;26.50;93.90;;;;;;5104328;28;19912;-56
2022/09/10 06:28:48;;;;;;;;;;;26.50;93.90;;;;;;5104028;28;19908;-60
2022/09/10 06:31:18;;;;;;;;;;;26.50;93.80;;;;;;5104498;28;20216;-56
2022/09/10 06:33:45;;;;;;;;;;;26.50;93.90;;;;;;5104161;28;20243;-56
2022/09/10 06:36:12;;;;;;;;;;;26.50;94.00;;;;;;5104457;28;19919;-62
2022/09/10 06:38:39;;;;;;;;;;;26.50;93.90;;;;;;5104236;28;20196;-52
2022/09/10 06:41:07;;;;;;;;;;;26.50;94.00;;;;;;5104550;28;19914;-55
2022/09/10 06:43:38;;;;;;;;;;;26.50;94.00;;;;;;5104035;28;19912;-56
2022/09/10 06:46:13;;;;;;;;;;;26.50;94.00;;;;;;5104548;28;19908;-55
2022/09/10 06:48:39;;;;;;;;;;;26.50;94.10;;;;;;5104049;28;19912;-53
2022/09/10 06:51:11;;;;;;;;;;;26.50;94.10;;;;;;5104607;28;19923;-59
2022/09/10 06:53:37;;;;;;;;;;;26.50;94.10;;;;;;5103953;28;19915;-56
2022/09/10 06:56:07;;;;;;;;;;;26.50;94.20;;;;;;5104361;28;19923;-54
2022/09/10 06:58:34;;;;;;;;;;;26.40;94.20;;;;;;5103942;28;19912;-55
2022/09/10 07:01:10;;;;;;;;;;;26.50;94.30;;;;;;5104235;28;19959;-57
2022/09/10 07:03:37;;;;;;;;;;;26.40;94.30;;;;;;5103875;28;19949;-57
2022/09/10 07:06:04;;;;;;;;;;;26.40;94.40;;;;;;5107952;28;19979;-53
2022/09/10 07:08:30;;;;;;;;;;;26.40;94.40;;;;;;5107774;28;19908;-54
2022/09/10 07:10:58;;;;;;;;;;;26.40;94.40;;;;;;5108026;28;20188;-56
2022/09/10 07:13:26;;;;;;;;;;;26.40;94.40;;;;;;5107698;28;19916;-55
2022/09/10 07:15:52;;;;;;;;;;;26.40;94.40;;;;;;5107898;28;19930;-55
2022/09/10 07:18:18;;;;;;;;;;;26.40;94.40;;;;;;5107276;28;19943;-60
2022/09/10 07:23:50;;;;;;;;;;;26.40;94.50;;;;;;5107442;28;19951;-56
2022/09/10 07:26:18;;;;;;;;;;;26.40;94.50;;;;;;5107340;28;20191;-56
2022/09/10 07:28:44;;;;;;;;;;;26.40;94.40;;;;;;5107158;28;19904;-54
2022/09/10 07:31:12;;;;;;;;;;;26.40;94.50;;;;;;5107839;28;20188;-57
2022/09/10 07:33:38;;;;;;;;;;;26.40;94.50;;;;;;5107214;28;19916;-55
2022/09/10 07:36:07;;;;;;;;;;;26.40;94.70;;;;;;5107525;28;19904;-53
2022/09/10 07:38:33;;;;;;;;;;;26.40;94.60;;;;;;5107117;28;19953;-55
2022/09/10 07:41:00;;;;;;;;;;;26.40;94.60;;;;;;5107469;28;20180;-58
2022/09/10 07:43:26;;;;;;;;;;;26.40;94.70;;;;;;5107026;28;19908;-55
2022/09/10 07:45:52;;;;;;;;;;;26.30;94.60;;;;;;5107457;28;20223;-56
2022/09/10 07:48:18;;;;;;;;;;;26.40;94.50;;;;;;5107191;28;19950;-54
2022/09/10 07:50:44;;;;;;;;;;;26.30;94.40;;;;;;5107161;28;19931;-57
2022/09/10 07:53:10;;;;;;;;;;;26.30;94.40;;;;;;5106918;28;19923;-54
2022/09/10 07:55:36;;;;;;;;;;;26.30;94.40;;;;;;5107382;28;19904;-57
2022/09/10 07:58:02;;;;;;;;;;;26.30;94.40;;;;;;5106695;28;19958;-53
2022/09/10 08:00:29;;;;;;;;;;;26.30;94.30;;;;;;5106948;28;19908;-56
2022/09/10 08:02:55;;;;;;;;;;;26.30;94.30;;;;;;5106723;28;19919;-55
2022/09/10 08:05:21;;;;;;;;;;;26.30;94.30;;;;;;5106563;28;19904;-55
2022/09/10 08:07:47;;;;;;;;;;;26.30;94.30;;;;;;5106528;28;19913;-53
2022/09/10 08:10:13;;;;;;;;;;;26.30;94.20;;;;;;5106868;28;19915;-55
2022/09/10 08:12:40;;;;;;;;;;;26.30;94.10;;;;;;5106493;28;19911;-56
2022/09/10 08:15:07;;;;;;;;;;;26.30;93.90;;;;;;5106580;28;20116;-55
2022/09/10 08:17:35;;;;;;;;;;;26.30;93.80;;;;;;5105555;28;19975;-57
2022/09/10 08:20:02;;;;;;;;;;;26.30;93.70;;;;;;5106562;28;19983;-54
2022/09/10 08:22:28;;;;;;;;;;;26.30;93.50;;;;;;5106389;28;20188;-54
2022/09/10 08:24:54;;;;;;;;;;;26.20;93.30;;;;;;5106551;28;19905;-54
2022/09/10 08:27:21;;;;;;;;;;;26.20;93.30;;;;;;5106176;28;19944;-54
2022/09/10 08:29:47;;;;;;;;;;;26.20;93.30;;;;;;5106255;28;19908;-53
2022/09/10 08:32:13;;;;;;;;;;;26.20;93.30;;;;;;5106220;28;20184;-54
2022/09/10 08:34:39;;;;;;;;;;;26.20;93.20;;;;;;5106225;28;19908;-55
2022/09/10 08:37:05;;;;;;;;;;;26.20;93.30;;;;;;5105749;28;20110;-54
2022/09/10 08:39:32;;;;;;;;;;;26.20;93.40;;;;;;5106298;28;20181;-55
2022/09/10 08:41:58;;;;;;;;;;;26.10;93.40;;;;;;5106096;28;20096;-53
2022/09/10 08:47:52;;;;;;;;;;;26.20;93.50;;;;;;5106073;28;19955;-56
2022/09/10 08:53:40;;;;;;;;;;;26.10;93.50;;;;;;5105876;28;19950;-54
2022/09/10 08:56:14;;;;;;;;;;;26.10;93.50;;;;;;5105891;28;19908;-53
2022/09/10 08:58:41;;;;;;;;;;;26.10;93.50;;;;;;5105487;28;20085;-59
2022/09/10 09:01:11;;;;;;;;;;;26.10;93.60;;;;;;5105879;28;20020;-57
2022/09/10 09:03:41;;;;;;;;;;;26.10;93.50;;;;;;5105235;28;20081;-56
2022/09/10 09:06:17;;;;;;;;;;;26.10;93.60;;;;;;5105894;28;19986;-54
2022/09/10 09:08:47;;;;;;;;;;;26.10;93.60;;;;;;5105200;28;19912;-53
2022/09/10 09:11:16;;;;;;;;;;;26.10;93.60;;;;;;5105508;28;19983;-54
2022/09/10 09:14:00;;;;;;;;;;;26.10;93.60;;;;;;5105476;28;19908;-55
2022/09/10 09:16:40;;;;;;;;;;;26.10;93.70;;;;;;5105131;28;19920;-57
2022/09/10 09:19:22;;;;;;;;;;;26.10;93.70;;;;;;5105011;28;19947;-54
2022/09/10 09:21:53;;;;;;;;;;;26.10;93.70;;;;;;5105196;28;19912;-59
2022/09/10 09:24:34;;;;;;;;;;;26.00;93.70;;;;;;5105189;28;19908;-55
2022/09/10 09:27:08;;;;;;;;;;;26.00;93.80;;;;;;5104950;28;19919;-55
2022/09/10 09:29:42;;;;;;;;;;;26.00;93.80;;;;;;5104603;28;19908;-53
2022/09/10 09:32:10;;;;;;;;;;;26.10;93.80;;;;;;5104910;28;19920;-55
2022/09/10 09:34:40;;;;;;;;;;;26.00;93.80;;;;;;5104817;28;19972;-54
2022/09/10 09:37:15;;;;;;;;;;;26.00;93.80;;;;;;5104704;28;19923;-55
2022/09/10 09:39:43;;;;;;;;;;;26.00;93.80;;;;;;5104924;28;19908;-54
2022/09/10 09:42:09;;;;;;;;;;;26.00;93.80;;;;;;5104749;28;19912;-53
2022/09/10 09:44:35;;;;;;;;;;;26.00;93.90;;;;;;5104663;28;19912;-54
2022/09/10 09:47:01;;;;;;;;;;;26.00;93.80;;;;;;5104809;28;19912;-54
2022/09/10 09:49:28;;;;;;;;;;;25.90;93.80;;;;;;5104902;28;19950;-54
2022/09/10 09:51:54;;;;;;;;;;;26.00;93.90;;;;;;5104489;28;19920;-57
2022/09/10 09:54:25;;;;;;;;;;;25.90;93.80;;;;;;5104764;28;19916;-56
2022/09/10 09:56:53;;;;;;;;;;;26.00;93.90;;;;;;5104438;28;19916;-58
2022/09/10 09:59:27;;;;;;;;;;;26.00;93.80;;;;;;5104436;28;20177;-55
2022/09/10 10:02:08;;;;;;;;;;;25.90;93.80;;;;;;5104389;28;19950;-57
2022/09/10 10:04:35;;;;;;;;;;;25.90;93.80;;;;;;5104563;28;19908;-54
2022/09/10 10:07:03;;;;;;;;;;;25.90;93.90;;;;;;5104401;28;19912;-57
2022/09/10 10:09:33;;;;;;;;;;;25.90;93.90;;;;;;5104462;28;19908;-58
2022/09/10 10:12:04;;;;;;;;;;;25.90;93.80;;;;;;5104337;28;19908;-54
2022/09/10 10:14:30;;;;;;;;;;;25.90;93.70;;;;;;5104739;28;19979;-56
2022/09/10 10:16:57;;;;;;;;;;;25.90;93.70;;;;;;5104280;28;19912;-55
2022/09/10 10:19:34;;;;;;;;;;;25.90;93.60;;;;;;5104275;28;19935;-54
2022/09/10 10:22:18;;;;;;;;;;;25.90;93.60;;;;;;5104374;28;19920;-56
2022/09/10 10:24:46;;;;;;;;;;;25.90;93.70;;;;;;5104460;28;20142;-56
2022/09/10 10:27:31;;;;;;;;;;;25.90;93.60;;;;;;5104357;28;19912;-54
2022/09/10 10:30:17;;;;;;;;;;;25.90;93.60;;;;;;5104526;28;19951;-54
2022/09/10 10:32:46;;;;;;;;;;;25.90;93.60;;;;;;5090322;28;19908;-57
2022/09/10 10:35:39;;;;;;;;;;;25.90;93.70;;;;;;5104417;28;19908;-57
2022/09/10 10:38:18;;;;;;;;;;;25.90;93.70;;;;;;5073456;28;20167;-54
2022/09/10 10:40:47;;;;;;;;;;;25.90;93.70;;;;;;5107873;28;19944;-55
2022/09/10 10:43:23;;;;;;;;;;;25.90;93.70;;;;;;5108342;28;20200;-54
2022/09/10 10:46:00;;;;;;;;;;;25.90;93.70;;;;;;5108511;28;20088;-54
2022/09/10 10:48:49;;;;;;;;;;;25.90;93.80;;;;;;5108091;28;19908;-54
2022/09/10 10:51:32;;;;;;;;;;;25.90;93.80;;;;;;5070256;28;19912;-56
2022/09/10 10:54:25;;;;;;;;;;;25.90;93.80;;;;;;5107753;28;19983;-54
2022/09/10 10:57:01;;;;;;;;;;;25.90;93.80;;;;;;5107921;28;19958;-58
2022/09/10 10:59:43;;;;;;;;;;;25.90;93.90;;;;;;5107842;28;19942;-55
2022/09/10 11:02:22;;;;;;;;;;;25.90;93.90;;;;;;5107927;28;19912;-53
2022/09/10 11:04:52;;;;;;;;;;;25.80;93.80;;;;;;5107871;28;20006;-55
2022/09/10 11:07:18;;;;;;;;;;;25.90;93.80;;;;;;5107771;28;19926;-56
2022/09/10 11:09:47;;;;;;;;;;;25.90;94.10;;;;;;5107849;28;19939;-54
2022/09/10 11:12:23;;;;;;;;;;;25.90;93.90;;;;;;5107704;28;19908;-56
2022/09/10 11:14:55;;;;;;;;;;;25.90;93.90;;;;;;5107835;28;19907;-53
2022/09/10 11:17:39;;;;;;;;;;;25.90;93.90;;;;;;5107418;28;20152;-54
2022/09/10 11:20:25;;;;;;;;;;;25.90;93.90;;;;;;5107538;28;19909;-57
2022/09/10 11:23:10;;;;;;;;;;;25.90;93.90;;;;;;5107372;28;19908;-56
2022/09/10 11:25:49;;;;;;;;;;;25.90;93.80;;;;;;5107541;28;19915;-54
2022/09/10 11:28:21;;;;;;;;;;;25.90;93.80;;;;;;5107320;28;19943;-54
2022/09/10 11:30:49;;;;;;;;;;;25.90;93.80;;;;;;5107575;28;19908;-58
2022/09/10 11:33:29;;;;;;;;;;;25.90;93.80;;;;;;5107476;28;19908;-55
2022/09/10 11:35:58;;;;;;;;;;;26.00;93.90;;;;;;5107661;28;19908;-55
2022/09/10 11:38:28;;;;;;;;;;;26.00;93.80;;;;;;5107299;28;19916;-55
2022/09/10 11:41:02;;;;;;;;;;;26.10;93.80;;;;;;5107612;28;19915;-55
2022/09/10 11:43:58;;;;;;;;;;;26.10;93.70;;;;;;5106915;28;19979;-56
2022/09/10 11:46:34;;;;;;;;;;;26.10;93.70;;;;;;5035140;28;19920;-55
2022/09/10 11:49:06;;;;;;;;;;;26.10;93.70;;;;;;5106927;28;19922;-57
2022/09/10 11:51:35;;;;;;;;;;;26.20;93.70;;;;;;5106161;28;19945;-59
2022/09/10 11:54:04;;;;;;;;;;;26.20;93.60;;;;;;5106715;28;19911;-58
2022/09/10 11:56:39;;;;;;;;;;;26.30;93.60;;;;;;5106928;28;19938;-55
2022/09/10 11:59:24;;;;;;;;;;;26.30;93.50;;;;;;5106720;28;19909;-52
2022/09/10 12:02:10;;;;;;;;;;;26.30;93.50;;;;;;5106578;28;19983;-54
2022/09/10 12:04:40;;;;;;;;;;;26.40;93.50;;;;;;5065192;28;19943;-55
2022/09/10 12:07:24;;;;;;;;;;;26.40;93.50;;;;;;5106702;28;19912;-58
2022/09/10 12:09:50;;;;;;;;;;;26.40;93.60;;;;;;5106555;28;20188;-55
2022/09/10 12:12:17;;;;;;;;;;;26.40;93.50;;;;;;5106483;28;19912;-53
2022/09/10 12:14:43;;;;;;;;;;;26.50;93.50;;;;;;5106706;28;19908;-54
2022/09/10 12:17:23;;;;;;;;;;;26.50;93.50;;;;;;5106243;28;19942;-54
2022/09/10 12:19:51;;;;;;;;;;;26.50;93.50;;;;;;5106508;28;19908;-58
2022/09/10 12:22:24;;;;;;;;;;;26.50;93.50;;;;;;5106273;28;19908;-52
2022/09/10 12:25:07;;;;;;;;;;;26.50;93.40;;;;;;5106492;28;19908;-54
2022/09/10 12:27:46;;;;;;;;;;;26.60;93.40;;;;;;5106257;28;19912;-60
2022/09/10 12:30:35;;;;;;;;;;;26.60;93.40;;;;;;5106436;28;19908;-57
2022/09/10 12:33:07;;;;;;;;;;;26.60;93.30;;;;;;5068266;28;19908;-57
2022/09/10 12:35:33;;;;;;;;;;;26.70;93.40;;;;;;5106412;28;19915;-54
2022/09/10 12:38:18;;;;;;;;;;;26.70;93.30;;;;;;5105845;28;19966;-56
2022/09/10 12:40:48;;;;;;;;;;;26.70;93.30;;;;;;5106478;28;19954;-55
2022/09/10 12:43:43;;;;;;;;;;;26.80;93.40;;;;;;5106046;28;20196;-56
2022/09/10 12:46:11;;;;;;;;;;;26.80;93.30;;;;;;5033954;28;19955;-55
2022/09/10 12:48:46;;;;;;;;;;;26.80;93.30;;;;;;5105665;28;20215;-55
2022/09/10 12:51:22;;;;;;;;;;;26.90;93.30;;;;;;5105795;28;19919;-53
2022/09/10 12:53:51;;;;;;;;;;;26.90;93.30;;;;;;5105741;28;19904;-56
2022/09/10 12:56:18;;;;;;;;;;;26.90;93.30;;;;;;5105623;28;19923;-56
2022/09/10 12:58:57;;;;;;;;;;;26.90;93.30;;;;;;5105692;28;19936;-55
2022/09/10 13:01:39;;;;;;;;;;;26.90;93.30;;;;;;5105294;28;19913;-59
2022/09/10 13:04:18;;;;;;;;;;;27.00;93.30;;;;;;5105316;28;19942;-57
2022/09/10 13:06:46;;;;;;;;;;;26.90;93.20;;;;;;5105299;28;19958;-58
2022/09/10 13:09:17;;;;;;;;;;;27.00;93.20;;;;;;5105632;28;20085;-56
2022/09/10 13:11:45;;;;;;;;;;;27.00;93.20;;;;;;5105381;28;20107;-57
2022/09/10 13:14:17;;;;;;;;;;;27.00;93.20;;;;;;5105355;28;20037;-58
2022/09/10 13:16:43;;;;;;;;;;;27.00;93.20;;;;;;5105233;28;19916;-57
2022/09/10 13:19:12;;;;;;;;;;;27.00;93.20;;;;;;5105090;28;20061;-58
2022/09/10 13:21:41;;;;;;;;;;;27.10;93.00;;;;;;5105098;28;19912;-56
2022/09/10 13:24:35;;;;;;;;;;;27.10;93.10;;;;;;5105132;28;19962;-56
2022/09/10 13:27:04;;;;;;;;;;;27.10;93.10;;;;;;5105122;28;19974;-55
2022/09/10 13:29:32;;;;;;;;;;;27.10;93.20;;;;;;5105069;28;19908;-54
2022/09/10 13:32:00;;;;;;;;;;;27.10;93.10;;;;;;5104795;28;19912;-55
2022/09/10 13:34:32;;;;;;;;;;;27.10;93.10;;;;;;5105210;28;19950;-55
2022/09/10 13:36:58;;;;;;;;;;;27.10;93.10;;;;;;5104954;28;20086;-54
2022/09/10 13:39:47;;;;;;;;;;;27.10;93.10;;;;;;5104846;28;19908;-55
2022/09/10 13:42:19;;;;;;;;;;;27.10;93.10;;;;;;5104940;28;19908;-53
2022/09/10 13:45:05;;;;;;;;;;;27.10;92.90;;;;;;5104950;28;20207;-59
2022/09/10 13:47:36;;;;;;;;;;;27.20;92.90;;;;;;5104634;28;19909;-55
2022/09/10 13:50:13;;;;;;;;;;;27.20;92.90;;;;;;5104619;28;19979;-54
2022/09/10 13:52:42;;;;;;;;;;;27.20;93.00;;;;;;5104666;28;20200;-62
2022/09/10 13:55:14;;;;;;;;;;;27.20;93.00;;;;;;5104767;28;19915;-56
2022/09/10 13:57:42;;;;;;;;;;;27.20;93.00;;;;;;5104645;28;19912;-57
2022/09/10 14:00:17;;;;;;;;;;;27.20;92.90;;;;;;5104666;28;19908;-58
2022/09/10 14:02:45;;;;;;;;;;;27.20;93.00;;;;;;5104787;28;19911;-55
2022/09/10 14:05:30;;;;;;;;;;;27.20;93.00;;;;;;5104784;28;20203;-58
2022/09/10 14:08:00;;;;;;;;;;;27.20;93.00;;;;;;5104348;28;19908;-56
2022/09/10 14:10:27;;;;;;;;;;;27.20;93.00;;;;;;5104689;28;19909;-56
2022/09/10 14:12:54;;;;;;;;;;;27.20;93.00;;;;;;5104383;28;20192;-59
2022/09/10 14:15:22;;;;;;;;;;;27.20;93.00;;;;;;5104201;28;19908;-55
2022/09/10 14:17:56;;;;;;;;;;;27.20;93.00;;;;;;5104300;28;19965;-57
2022/09/10 14:20:24;;;;;;;;;;;27.30;93.00;;;;;;5104564;28;19908;-58
2022/09/10 14:23:13;;;;;;;;;;;27.20;93.00;;;;;;5104606;28;20139;-55
2022/09/10 14:25:40;;;;;;;;;;;27.30;93.30;;;;;;5093955;28;19904;-55
2022/09/10 14:28:15;;;;;;;;;;;27.30;93.00;;;;;;5104336;28;19912;-54
2022/09/10 14:30:43;;;;;;;;;;;27.30;93.00;;;;;;5104474;28;19971;-56
2022/09/10 14:33:27;;;;;;;;;;;27.30;93.00;;;;;;5104174;28;19912;-54
2022/09/10 14:35:54;;;;;;;;;;;27.30;93.10;;;;;;5104121;28;20077;-56
2022/09/10 14:38:20;;;;;;;;;;;27.30;93.10;;;;;;5103973;28;20130;-55
2022/09/10 14:40:46;;;;;;;;;;;27.30;93.00;;;;;;5104653;28;19909;-57
2022/09/10 14:43:14;;;;;;;;;;;27.30;93.00;;;;;;5104164;28;19983;-55